Aeroporto :
LOGIN :

Iscrizione | Disclaimer

   EN    FR    IT 

 










Sommario :    VFR   VFR Marginale   IFR   IFR Intensivo   IFR Molto Intensivo
Visibilità : 
Base nubi : 
>= 8 km
>= 3000ft
5 / 8 km
1000 / 3000 ft
1500m / 5 km
500 / 1000 ft
800 / 1500m
200 / 500 ft
< 800m
< 200 ft
Simboli :   Temporali  Nebbia  Neve Forte  Precipitazioni Forti  Vento > 20 kt
SIGMETs :   Varie  Temporali  Ghiacco  Turbolenza  Onda orograficha  Ceneri Vulcaniche






- Altitudine del aeroporto : 171 ft
- Codice IATA : EGC


LFBE - Bergerac

ULTIMO METAR :
  • 211600Z AUTO 28004KT 240V330 CAVOK 14/01 Q1031 NOSIG

METARs OBSOLETI :
  • 211530Z AUTO 29004KT 260V320 CAVOK 14/01 Q1031 NOSIG
  • 211500Z AUTO 27005KT 210V320 CAVOK 14/02 Q1031 NOSIG
  • 211430Z AUTO 27006KT 230V290 CAVOK 14/01 Q1031 NOSIG
  • 211400Z AUTO 25004KT 200V320 CAVOK 14/02 Q1032 NOSIG
  • 211330Z AUTO 27004KT 240V320 CAVOK 14/02 Q1032 NOSIG

TAF TAF LFBE
Valido dal 21 a 12 ore il 22 a 12 ore UTC


211100Z 2112/2212 31005KT 9999 SCT030
PROB40 2200/2208 2000 MIFG



MetMap, La meteo Aeronautica in un colpo d'occhio ! - Copyright ORBIFLY Dicembre 2007 - Disclaimer

ORBIFLY MET'MAP TEAM :

Programmazione e sviluppo : Alexandra Zaïnal
Concezione : Baudouin d'Aumeries
Aiuto per la programmazione : Marc-Olivier Méhu
Supporto tecnico e logistico : Manuel Goepfert
Aiuto per la traduzione : Arnaldo La Scala

Contatto : metmap@orbifly.com




FONTI E CREDITI :

   NOAA